Time,TemperatureF,DewpointF,PressureIn,WindDirection,WindDirectionDegrees,WindSpeedMPH,WindSpeedGustMPH,Humidity,HourlyPrecipIn,Conditions,Clouds,dailyrainin,SoftwareType,DateUTC
2013-05-30 00:02:00,73.7,62.5,29.35,SE,138,0.0,2.0,68,0.00,,,0.00,Wunderground v.1.15,2013-05-30 05:02:00,
2013-05-30 00:08:00,73.7,62.5,29.35,SE,137,0.0,6.0,68,0.00,,,0.00,Wunderground v.1.15,2013-05-30 05:08:00,
2013-05-30 00:13:00,73.6,62.0,29.34,SSE,150,0.0,1.0,67,0.00,,,0.00,Wunderground v.1.15,2013-05-30 05:13:00,
2013-05-30 00:19:00,73.5,62.3,29.34,SE,146,0.0,8.0,68,0.00,,,0.00,Wunderground v.1.15,2013-05-30 05:19:00,
2013-05-30 00:25:00,73.4,62.6,29.33,SE,142,4.0,5.0,69,0.00,,,0.00,Wunderground v.1.15,2013-05-30 05:25:00,
2013-05-30 00:30:00,73.3,62.5,29.33,SE,139,2.0,2.0,69,0.00,,,0.00,Wunderground v.1.15,2013-05-30 05:30:00,
2013-05-30 00:36:00,73.8,63.0,29.32,SSE,152,0.0,4.0,69,0.00,,,0.00,Wunderground v.1.15,2013-05-30 05:36:00,
2013-05-30 00:41:00,73.4,62.6,29.32,South,181,1.0,3.0,69,0.00,,,0.00,Wunderground v.1.15,2013-05-30 05:41:00,
2013-05-30 00:46:00,73.5,62.7,29.31,SSE,157,0.0,8.0,69,0.00,,,0.00,Wunderground v.1.15,2013-05-30 05:46:00,
2013-05-30 00:51:00,73.6,62.8,29.31,SSE,148,7.0,8.0,69,0.00,,,0.00,Wunderground v.1.15,2013-05-30 05:51:00,
2013-05-30 00:57:00,73.9,63.1,29.31,SE,145,8.0,10.0,69,0.00,,,0.00,Wunderground v.1.15,2013-05-30 05:57:00,
2013-05-30 01:02:00,74.0,63.2,29.31,SSE,162,10.0,10.0,69,0.00,,,0.00,Wunderground v.1.15,2013-05-30 06:02:00,
2013-05-30 01:08:00,74.1,63.3,29.31,East,96,9.0,14.0,69,0.00,,,0.00,Wunderground v.1.15,2013-05-30 06:08:00,
2013-05-30 01:14:00,74.3,63.5,29.30,SSE,159,9.0,10.0,69,0.00,,,0.00,Wunderground v.1.15,2013-05-30 06:14:00,
2013-05-30 01:19:00,74.5,63.7,29.30,ESE,105,5.0,10.0,69,0.00,,,0.00,Wunderground v.1.15,2013-05-30 06:19:00,
2013-05-30 01:25:00,74.5,64.1,29.30,ESE,106,12.0,12.0,70,0.00,,,0.00,Wunderground v.1.15,2013-05-30 06:25:00,
2013-05-30 01:30:00,74.5,64.1,29.30,SE,132,6.0,6.0,70,0.00,,,0.00,Wunderground v.1.15,2013-05-30 06:30:00,
2013-05-30 01:35:00,74.6,64.2,29.30,SE,137,6.0,17.0,70,0.00,,,0.00,Wunderground v.1.15,2013-05-30 06:35:00,
2013-05-30 01:41:00,74.6,64.2,29.29,SSE,156,13.0,13.0,70,0.00,,,0.00,Wunderground v.1.15,2013-05-30 06:41:00,
2013-05-30 01:46:00,74.6,64.6,29.29,SSE,162,10.0,13.0,71,0.00,,,0.00,Wunderground v.1.15,2013-05-30 06:46:00,
2013-05-30 01:51:00,74.6,-99.9,29.29,ESE,111,4.0,8.0,255,0.00,,,0.00,Wunderground v.1.15,2013-05-30 06:51:00,
2013-05-30 01:57:00,74.3,64.7,29.29,SSE,156,8.0,8.0,72,0.00,,,0.00,Wunderground v.1.15,2013-05-30 06:57:00,
2013-05-30 02:02:00,74.2,64.6,29.29,SE,138,13.0,13.0,72,0.00,,,0.00,Wunderground v.1.15,2013-05-30 07:02:00,
2013-05-30 02:07:00,74.2,65.0,29.29,SE,144,8.0,15.0,73,0.00,,,0.00,Wunderground v.1.15,2013-05-30 07:07:00,
2013-05-30 02:12:00,73.9,64.7,29.30,ESE,117,7.0,12.0,73,0.00,,,0.00,Wunderground v.1.15,2013-05-30 07:12:00,
2013-05-30 02:17:00,73.8,65.0,29.30,SE,142,10.0,12.0,74,0.00,,,0.00,Wunderground v.1.15,2013-05-30 07:17:00,
2013-05-30 02:22:00,73.8,65.0,29.30,SSE,157,12.0,16.0,74,0.00,,,0.00,Wunderground v.1.15,2013-05-30 07:22:00,
2013-05-30 02:27:00,73.9,65.1,29.30,SSE,162,6.0,16.0,74,0.00,,,0.00,Wunderground v.1.15,2013-05-30 07:27:00,
2013-05-30 02:32:00,73.7,65.3,29.30,SE,140,4.0,9.0,75,0.00,,,0.00,Wunderground v.1.15,2013-05-30 07:32:00,
2013-05-30 02:37:00,73.6,65.2,29.30,SE,134,9.0,11.0,75,0.00,,,0.00,Wunderground v.1.15,2013-05-30 07:37:00,
2013-05-30 02:42:00,73.4,65.0,29.29,SE,135,4.0,9.0,75,0.00,,,0.00,Wunderground v.1.15,2013-05-30 07:42:00,
2013-05-30 02:47:00,73.3,64.9,29.29,East,101,7.0,12.0,75,0.00,,,0.00,Wunderground v.1.15,2013-05-30 07:47:00,
2013-05-30 02:52:00,73.3,64.9,29.29,SSE,155,0.0,9.0,75,0.00,,,0.00,Wunderground v.1.15,2013-05-30 07:52:00,
2013-05-30 02:57:00,73.2,64.8,29.29,SSE,167,5.0,14.0,75,0.00,,,0.00,Wunderground v.1.15,2013-05-30 07:57:00,
2013-05-30 03:02:00,73.3,64.9,29.28,ESE,119,6.0,13.0,75,0.00,,,0.00,Wunderground v.1.15,2013-05-30 08:02:00,
2013-05-30 03:07:00,73.3,64.9,29.28,ENE,64,0.0,13.0,75,0.00,,,0.00,Wunderground v.1.15,2013-05-30 08:07:00,
2013-05-30 03:12:00,73.3,64.9,29.28,SSE,149,5.0,13.0,75,0.00,,,0.00,Wunderground v.1.15,2013-05-30 08:12:00,
2013-05-30 03:17:00,73.5,65.1,29.29,SSE,160,6.0,18.0,75,0.00,,,0.00,Wunderground v.1.15,2013-05-30 08:17:00,
2013-05-30 03:22:00,73.7,64.9,29.29,SSE,155,9.0,22.0,74,0.00,,,0.00,Wunderground v.1.15,2013-05-30 08:22:00,
2013-05-30 03:27:00,74.0,65.2,29.30,SSE,168,4.0,22.0,74,0.00,,,0.00,Wunderground v.1.15,2013-05-30 08:27:00,
2013-05-30 03:32:00,74.1,65.3,29.30,SE,141,7.0,11.0,74,0.00,,,0.00,Wunderground v.1.15,2013-05-30 08:32:00,
2013-05-30 03:37:00,74.0,65.2,29.30,SSE,163,1.0,12.0,74,0.00,,,0.00,Wunderground v.1.15,2013-05-30 08:37:00,
2013-05-30 03:42:00,74.0,65.2,29.30,SE,128,6.0,14.0,74,0.00,,,0.00,Wunderground v.1.15,2013-05-30 08:42:00,
2013-05-30 03:47:00,73.9,65.1,29.30,South,171,5.0,15.0,74,0.00,,,0.00,Wunderground v.1.15,2013-05-30 08:47:00,
2013-05-30 03:52:00,73.8,65.0,29.30,SSE,157,6.0,13.0,74,0.00,,,0.00,Wunderground v.1.15,2013-05-30 08:52:00,
2013-05-30 03:57:00,73.8,65.0,29.30,SSE,157,0.0,21.0,74,0.00,,,0.00,Wunderground v.1.15,2013-05-30 08:57:00,
2013-05-30 04:02:00,73.7,65.3,29.30,South,170,9.0,14.0,75,0.00,,,0.00,Wunderground v.1.15,2013-05-30 09:02:00,
2013-05-30 04:07:00,73.6,65.2,29.29,SSE,154,9.0,20.0,75,0.00,,,0.00,Wunderground v.1.15,2013-05-30 09:07:00,
2013-05-30 04:12:00,73.6,65.2,29.29,SE,137,7.0,16.0,75,0.00,,,0.00,Wunderground v.1.15,2013-05-30 09:12:00,
2013-05-30 04:17:00,73.5,65.1,29.29,SSE,162,10.0,16.0,75,0.00,,,0.00,Wunderground v.1.15,2013-05-30 09:17:00,
2013-05-30 04:22:00,73.5,65.1,29.29,SSE,168,6.0,14.0,75,0.00,,,0.00,Wunderground v.1.15,2013-05-30 09:22:00,
2013-05-30 04:27:00,73.3,64.9,29.28,SSE,162,6.0,15.0,75,0.00,,,0.00,Wunderground v.1.15,2013-05-30 09:27:00,
2013-05-30 04:32:00,73.3,65.3,29.29,SSE,165,1.0,13.0,76,0.00,,,0.00,Wunderground v.1.15,2013-05-30 09:32:00,
2013-05-30 04:37:00,73.1,65.1,29.29,SE,144,10.0,18.0,76,0.00,,,0.00,Wunderground v.1.15,2013-05-30 09:37:00,
2013-05-30 04:42:00,73.1,65.1,29.29,South,173,8.0,15.0,76,0.00,,,0.00,Wunderground v.1.15,2013-05-30 09:42:00,
2013-05-30 04:47:00,73.1,65.1,29.29,SE,140,0.0,15.0,76,0.00,,,0.00,Wunderground v.1.15,2013-05-30 09:47:00,
2013-05-30 04:52:00,72.9,65.3,29.29,SE,124,7.0,13.0,77,0.00,,,0.00,Wunderground v.1.15,2013-05-30 09:52:00,
2013-05-30 04:57:00,72.7,65.1,29.29,SE,140,0.0,14.0,77,0.00,,,0.00,Wunderground v.1.15,2013-05-30 09:57:00,
2013-05-30 05:02:00,72.7,65.1,29.29,South,183,2.0,21.0,77,0.00,,,0.00,Wunderground v.1.15,2013-05-30 10:02:00,
2013-05-30 05:07:00,72.8,65.2,29.29,South,171,6.0,21.0,77,0.00,,,0.00,Wunderground v.1.15,2013-05-30 10:07:00,
2013-05-30 05:12:00,72.8,65.2,29.29,SSE,160,9.0,17.0,77,0.00,,,0.00,Wunderground v.1.15,2013-05-30 10:12:00,
2013-05-30 05:17:00,72.9,65.3,29.29,ESE,103,6.0,17.0,77,0.00,,,0.00,Wunderground v.1.15,2013-05-30 10:17:00,
2013-05-30 05:22:00,72.9,65.3,29.29,SE,146,6.0,14.0,77,0.00,,,0.00,Wunderground v.1.15,2013-05-30 10:22:00,
2013-05-30 05:27:00,72.9,65.6,29.28,SSE,161,4.0,16.0,78,0.00,,,0.00,Wunderground v.1.15,2013-05-30 10:27:00,
2013-05-30 05:33:00,72.8,65.5,29.29,SSE,156,11.0,14.0,78,0.00,,,0.00,Wunderground v.1.15,2013-05-30 10:33:00,
2013-05-30 05:38:00,72.9,65.6,29.29,SSE,155,10.0,20.0,78,0.00,,,0.00,Wunderground v.1.15,2013-05-30 10:38:00,
2013-05-30 05:43:00,72.8,65.5,29.29,SSE,157,7.0,23.0,78,0.00,,,0.00,Wunderground v.1.15,2013-05-30 10:43:00,
2013-05-30 05:48:00,72.9,65.6,29.29,SSE,161,7.0,23.0,78,0.00,,,0.00,Wunderground v.1.15,2013-05-30 10:48:00,
2013-05-30 05:53:00,72.8,65.5,29.29,SE,137,13.0,20.0,78,0.00,,,0.00,Wunderground v.1.15,2013-05-30 10:53:00,
2013-05-30 05:58:00,72.7,65.4,29.29,SE,124,8.0,20.0,78,0.00,,,0.00,Wunderground v.1.15,2013-05-30 10:58:00,
2013-05-30 06:03:00,72.6,65.3,29.29,SE,126,11.0,12.0,78,0.00,,,0.00,Wunderground v.1.15,2013-05-30 11:03:00,
2013-05-30 06:08:00,72.5,65.6,29.29,SE,133,11.0,17.0,79,0.00,,,0.00,Wunderground v.1.15,2013-05-30 11:08:00,
2013-05-30 06:13:00,72.4,65.5,29.29,ESE,108,12.0,15.0,79,0.00,,,0.00,Wunderground v.1.15,2013-05-30 11:13:00,
2013-05-30 06:18:00,72.3,65.4,29.28,SSE,158,10.0,22.0,79,0.00,,,0.00,Wunderground v.1.15,2013-05-30 11:18:00,
2013-05-30 06:23:00,72.4,65.9,29.28,SSE,166,7.0,14.0,80,0.00,,,0.00,Wunderground v.1.15,2013-05-30 11:23:00,
2013-05-30 06:28:00,72.4,65.9,29.29,SE,146,6.0,14.0,80,0.00,,,0.00,Wunderground v.1.15,2013-05-30 11:28:00,
2013-05-30 06:33:00,72.4,65.9,29.29,SSE,153,12.0,27.0,80,0.00,,,0.00,Wunderground v.1.15,2013-05-30 11:33:00,
2013-05-30 06:38:00,72.4,65.9,29.28,SE,143,9.0,27.0,80,0.00,,,0.00,Wunderground v.1.15,2013-05-30 11:38:00,
2013-05-30 06:43:00,72.4,65.9,29.28,SSE,160,13.0,14.0,80,0.00,,,0.00,Wunderground v.1.15,2013-05-30 11:43:00,
2013-05-30 06:48:00,72.4,65.9,29.28,SE,137,17.0,21.0,80,0.00,,,0.00,Wunderground v.1.15,2013-05-30 11:48:00,
2013-05-30 06:53:00,72.4,65.9,29.28,SSE,159,10.0,12.0,80,0.00,,,0.00,Wunderground v.1.15,2013-05-30 11:53:00,
2013-05-30 06:58:00,72.4,66.2,29.28,South,171,9.0,14.0,81,0.00,,,0.00,Wunderground v.1.15,2013-05-30 11:58:00,
2013-05-30 07:03:00,72.4,65.9,29.29,SSE,163,8.0,17.0,80,0.00,,,0.00,Wunderground v.1.15,2013-05-30 12:03:00,
2013-05-30 07:08:00,72.5,-99.9,29.29,SSE,159,15.0,18.0,255,0.00,,,0.00,Wunderground v.1.15,2013-05-30 12:08:00,
2013-05-30 07:13:00,72.5,66.3,29.29,South,178,9.0,13.0,81,0.00,,,0.00,Wunderground v.1.15,2013-05-30 12:13:00,
2013-05-30 07:18:00,72.6,66.4,29.28,SSE,158,7.0,19.0,81,0.00,,,0.00,Wunderground v.1.15,2013-05-30 12:18:00,
2013-05-30 07:23:00,72.7,66.5,29.28,SE,141,7.0,20.0,81,0.00,,,0.00,Wunderground v.1.15,2013-05-30 12:23:00,
2013-05-30 07:28:00,72.8,66.6,29.28,SSE,150,9.0,20.0,81,0.00,,,0.00,Wunderground v.1.15,2013-05-30 12:28:00,
2013-05-30 07:33:00,72.9,66.7,29.29,SSE,159,16.0,16.0,81,0.00,,,0.00,Wunderground v.1.15,2013-05-30 12:33:00,
2013-05-30 07:38:00,73.0,66.8,29.29,SSE,167,9.0,18.0,81,0.00,,,0.00,Wunderground v.1.15,2013-05-30 12:38:00,
2013-05-30 07:43:00,73.1,66.9,29.29,South,178,10.0,20.0,81,0.00,,,0.00,Wunderground v.1.15,2013-05-30 12:43:00,
2013-05-30 07:48:00,73.4,66.9,29.29,South,172,10.0,21.0,80,0.00,,,0.00,Wunderground v.1.15,2013-05-30 12:48:00,
2013-05-30 07:53:00,73.5,66.9,29.29,SSE,163,7.0,14.0,80,0.00,,,0.00,Wunderground v.1.15,2013-05-30 12:53:00,
2013-05-30 07:58:00,73.7,67.1,29.30,SSE,155,5.0,18.0,80,0.00,,,0.00,Wunderground v.1.15,2013-05-30 12:58:00,
2013-05-30 08:03:00,73.7,67.1,29.30,SSE,165,5.0,17.0,80,0.00,,,0.00,Wunderground v.1.15,2013-05-30 13:03:00,
2013-05-30 08:08:00,73.9,67.3,29.30,SSE,162,5.0,17.0,80,0.00,,,0.00,Wunderground v.1.15,2013-05-30 13:08:00,
2013-05-30 08:13:00,74.1,67.5,29.30,SSE,147,8.0,17.0,80,0.00,,,0.00,Wunderground v.1.15,2013-05-30 13:13:00,
2013-05-30 08:19:00,74.4,67.5,29.30,South,170,13.0,18.0,79,0.00,,,0.00,Wunderground v.1.15,2013-05-30 13:19:00,
2013-05-30 08:24:00,74.5,67.2,29.31,SSE,160,9.0,19.0,78,0.00,,,0.00,Wunderground v.1.15,2013-05-30 13:24:00,
2013-05-30 08:29:00,74.6,67.3,29.31,South,184,7.0,19.0,78,0.00,,,0.00,Wunderground v.1.15,2013-05-30 13:29:00,
2013-05-30 08:34:00,74.7,67.8,29.31,SSE,155,6.0,13.0,79,0.00,,,0.00,Wunderground v.1.15,2013-05-30 13:34:00,
2013-05-30 08:39:00,75.1,68.1,29.30,SE,132,5.0,14.0,79,0.00,,,0.00,Wunderground v.1.15,2013-05-30 13:39:00,
2013-05-30 08:44:00,75.7,68.0,29.30,SSE,150,12.0,27.0,77,0.00,,,0.00,Wunderground v.1.15,2013-05-30 13:44:00,
2013-05-30 08:49:00,76.1,68.0,29.30,SSE,151,9.0,27.0,76,0.00,,,0.00,Wunderground v.1.15,2013-05-30 13:49:00,
2013-05-30 08:54:00,76.5,68.0,29.30,SE,146,11.0,18.0,75,0.00,,,0.00,Wunderground v.1.15,2013-05-30 13:54:00,
2013-05-30 08:59:00,76.6,68.1,29.30,SSE,164,12.0,19.0,75,0.00,,,0.00,Wunderground v.1.15,2013-05-30 13:59:00,
2013-05-30 09:04:00,76.6,68.1,29.30,South,178,5.0,16.0,75,0.00,,,0.00,Wunderground v.1.15,2013-05-30 14:04:00,
2013-05-30 09:09:00,76.8,68.3,29.30,ESE,118,14.0,27.0,75,0.00,,,0.00,Wunderground v.1.15,2013-05-30 14:09:00,
2013-05-30 09:14:00,-999.9,-99.9,29.31,South,169,2.0,22.0,74,0.00,,,0.00,Wunderground v.1.15,2013-05-30 14:14:00,
2013-05-30 09:19:00,77.3,68.0,29.31,SSE,155,9.0,22.0,73,0.00,,,0.00,Wunderground v.1.15,2013-05-30 14:19:00,
2013-05-30 09:24:00,77.5,-99.9,29.31,SSE,154,13.0,19.0,255,0.00,,,0.00,Wunderground v.1.15,2013-05-30 14:24:00,
2013-05-30 09:29:00,77.4,67.7,29.31,South,169,9.0,22.0,72,0.00,,,0.00,Wunderground v.1.15,2013-05-30 14:29:00,
2013-05-30 09:34:00,77.2,67.5,29.31,South,175,14.0,22.0,72,0.00,,,0.00,Wunderground v.1.15,2013-05-30 14:34:00,
2013-05-30 09:39:00,76.9,67.6,29.31,SSE,151,9.0,22.0,73,0.00,,,0.00,Wunderground v.1.15,2013-05-30 14:39:00,
2013-05-30 09:44:00,76.7,67.8,29.31,SSE,157,15.0,26.0,74,0.00,,,0.00,Wunderground v.1.15,2013-05-30 14:44:00,
2013-05-30 09:49:00,76.6,67.3,29.31,SSE,152,10.0,26.0,73,0.00,,,0.00,Wunderground v.1.15,2013-05-30 14:49:00,
2013-05-30 09:54:00,76.6,67.7,29.32,South,180,4.0,18.0,74,0.00,,,0.00,Wunderground v.1.15,2013-05-30 14:54:00,
2013-05-30 09:59:00,76.9,67.6,29.31,SSE,161,7.0,18.0,73,0.00,,,0.00,Wunderground v.1.15,2013-05-30 14:59:00,
2013-05-30 10:04:00,77.0,68.1,29.31,SSE,159,13.0,16.0,74,0.00,,,0.00,Wunderground v.1.15,2013-05-30 15:04:00,
2013-05-30 10:09:00,77.2,67.9,29.30,SSE,163,1.0,19.0,73,0.00,,,0.00,Wunderground v.1.15,2013-05-30 15:09:00,
2013-05-30 10:14:00,77.5,68.2,29.30,SSE,165,9.0,19.0,73,0.00,,,0.00,Wunderground v.1.15,2013-05-30 15:14:00,
2013-05-30 10:19:00,77.7,68.0,29.30,SE,131,9.0,25.0,72,0.00,,,0.00,Wunderground v.1.15,2013-05-30 15:19:00,
2013-05-30 10:24:00,78.3,67.3,29.30,SSE,150,15.0,21.0,69,0.00,,,0.00,Wunderground v.1.15,2013-05-30 15:24:00,
2013-05-30 10:29:00,78.5,67.9,29.30,SSE,165,8.0,21.0,70,0.00,,,0.00,Wunderground v.1.15,2013-05-30 15:29:00,
2013-05-30 10:34:00,78.9,68.3,29.30,SSE,147,12.0,18.0,70,0.00,,,0.00,Wunderground v.1.15,2013-05-30 15:34:00,
2013-05-30 10:39:00,79.1,-99.9,29.30,South,183,9.0,21.0,255,0.00,,,0.00,Wunderground v.1.15,2013-05-30 15:39:00,
2013-05-30 10:44:00,79.1,68.1,29.29,SSE,154,16.0,22.0,69,0.00,,,0.00,Wunderground v.1.15,2013-05-30 15:44:00,
2013-05-30 10:49:00,78.9,67.4,29.29,SSE,167,13.0,23.0,68,0.00,,,0.00,Wunderground v.1.15,2013-05-30 15:49:00,
2013-05-30 10:54:00,-999.9,-99.9,29.29,South,177,9.0,26.0,67,0.00,,,0.00,Wunderground v.1.15,2013-05-30 15:54:00,
2013-05-30 10:59:00,79.7,67.8,29.30,South,182,9.0,26.0,67,0.00,,,0.00,Wunderground v.1.15,2013-05-30 15:59:00,
2013-05-30 11:04:00,79.8,67.9,29.30,SE,145,1.0,26.0,67,0.00,,,0.00,Wunderground v.1.15,2013-05-30 16:04:00,
2013-05-30 11:09:00,79.9,68.0,29.30,SSE,167,4.0,26.0,67,0.00,,,0.00,Wunderground v.1.15,2013-05-30 16:09:00,
2013-05-30 11:14:00,-999.9,-99.9,29.30,South,169,13.0,23.0,65,0.00,,,0.00,Wunderground v.1.15,2013-05-30 16:14:00,
2013-05-30 11:19:00,80.2,66.9,29.30,SSE,162,11.0,28.0,64,0.00,,,0.00,Wunderground v.1.15,2013-05-30 16:19:00,
2013-05-30 11:24:00,79.6,67.2,29.31,SSE,148,14.0,27.0,66,0.00,,,0.00,Wunderground v.1.15,2013-05-30 16:24:00,
2013-05-30 11:29:00,79.3,67.0,29.30,South,171,7.0,13.0,66,0.00,,,0.00,Wunderground v.1.15,2013-05-30 16:29:00,
2013-05-30 11:34:00,79.3,67.8,29.30,SSE,151,20.0,21.0,68,0.00,,,0.00,Wunderground v.1.15,2013-05-30 16:34:00,
2013-05-30 11:39:00,79.7,67.8,29.30,SSE,147,7.0,13.0,67,0.00,,,0.00,Wunderground v.1.15,2013-05-30 16:39:00,
2013-05-30 11:44:00,79.8,67.0,29.30,SSE,162,7.0,23.0,65,0.00,,,0.00,Wunderground v.1.15,2013-05-30 16:44:00,
2013-05-30 11:49:00,79.8,67.0,29.30,SSE,161,9.0,24.0,65,0.00,,,0.00,Wunderground v.1.15,2013-05-30 16:49:00,
2013-05-30 11:54:00,80.0,66.7,29.31,SSE,155,26.0,26.0,64,0.00,,,0.00,Wunderground v.1.15,2013-05-30 16:54:00,
2013-05-30 11:59:00,80.1,66.8,29.31,SSW,195,11.0,13.0,64,0.00,,,0.00,Wunderground v.1.15,2013-05-30 16:59:00,
2013-05-30 12:05:00,80.2,66.9,29.30,SSW,199,15.0,25.0,64,0.00,,,0.00,Wunderground v.1.15,2013-05-30 17:05:00,
2013-05-30 12:09:00,-999.9,-99.9,29.30,SSE,150,23.0,23.0,255,0.00,,,0.00,Wunderground v.1.15,2013-05-30 17:09:00,
2013-05-30 12:14:00,80.7,67.4,29.29,South,169,12.0,33.0,64,0.00,,,0.00,Wunderground v.1.15,2013-05-30 17:14:00,
2013-05-30 12:20:00,81.0,67.7,29.29,SSE,166,8.0,13.0,64,0.00,,,0.00,Wunderground v.1.15,2013-05-30 17:20:00,
2013-05-30 12:25:00,81.4,68.1,29.29,SSW,213,14.0,16.0,64,0.00,,,0.00,Wunderground v.1.15,2013-05-30 17:25:00,
2013-05-30 12:30:00,81.5,67.7,29.28,SE,143,13.0,13.0,63,0.00,,,0.00,Wunderground v.1.15,2013-05-30 17:30:00,
2013-05-30 12:35:00,81.5,67.7,29.28,South,169,14.0,19.0,63,0.00,,,0.00,Wunderground v.1.15,2013-05-30 17:35:00,
2013-05-30 12:40:00,81.0,66.3,29.27,South,182,19.0,19.0,61,0.00,,,0.00,Wunderground v.1.15,2013-05-30 17:40:00,
2013-05-30 12:45:00,81.2,66.5,29.27,South,176,10.0,32.0,61,0.00,,,0.00,Wunderground v.1.15,2013-05-30 17:45:00,
2013-05-30 12:50:00,81.6,67.3,29.27,South,173,14.0,14.0,62,0.00,,,0.00,Wunderground v.1.15,2013-05-30 17:50:00,
2013-05-30 12:55:00,81.8,67.0,29.26,South,178,12.0,26.0,61,0.00,,,0.00,Wunderground v.1.15,2013-05-30 17:55:00,
2013-05-30 13:00:00,82.3,67.5,29.25,ESE,107,12.0,15.0,61,0.00,,,0.00,Wunderground v.1.15,2013-05-30 18:00:00,
2013-05-30 13:05:00,82.5,67.7,29.25,SSE,150,20.0,27.0,61,0.00,,,0.00,Wunderground v.1.15,2013-05-30 18:05:00,
2013-05-30 13:10:00,82.8,67.0,29.25,SSE,167,9.0,15.0,59,0.00,,,0.00,Wunderground v.1.15,2013-05-30 18:10:00,
2013-05-30 13:15:00,82.5,67.2,29.25,SSE,148,21.0,26.0,60,0.00,,,0.00,Wunderground v.1.15,2013-05-30 18:15:00,
2013-05-30 13:20:00,82.1,66.4,29.25,South,170,13.0,13.0,59,0.00,,,0.00,Wunderground v.1.15,2013-05-30 18:20:00,
2013-05-30 13:25:00,82.2,66.9,29.24,South,178,6.0,21.0,60,0.00,,,0.00,Wunderground v.1.15,2013-05-30 18:25:00,
2013-05-30 13:30:00,82.1,66.8,29.24,SSE,166,16.0,20.0,60,0.00,,,0.00,Wunderground v.1.15,2013-05-30 18:30:00,
2013-05-30 13:35:00,81.6,66.4,29.24,South,171,14.0,35.0,60,0.00,,,0.00,Wunderground v.1.15,2013-05-30 18:35:00,
2013-05-30 13:40:00,81.8,67.0,29.23,ESE,117,15.0,26.0,61,0.00,,,0.00,Wunderground v.1.15,2013-05-30 18:40:00,
2013-05-30 13:45:00,82.3,67.0,29.24,SSE,148,9.0,31.0,60,0.00,,,0.00,Wunderground v.1.15,2013-05-30 18:45:00,
2013-05-30 13:50:00,82.6,67.8,29.24,SSE,163,10.0,14.0,61,0.00,,,0.00,Wunderground v.1.15,2013-05-30 18:50:00,
2013-05-30 13:55:00,83.1,67.8,29.24,SSE,155,11.0,19.0,60,0.00,,,0.00,Wunderground v.1.15,2013-05-30 18:55:00,
2013-05-30 14:00:00,83.0,67.2,29.24,SE,136,17.0,17.0,59,0.00,,,0.00,Wunderground v.1.15,2013-05-30 19:00:00,
2013-05-30 14:05:00,83.4,68.5,29.24,SSE,167,12.0,27.0,61,0.00,,,0.00,Wunderground v.1.15,2013-05-30 19:05:00,
2013-05-30 14:10:00,83.2,67.9,29.25,SSE,155,14.0,18.0,60,0.00,,,0.00,Wunderground v.1.15,2013-05-30 19:10:00,
2013-05-30 14:15:00,82.6,66.8,29.25,SSE,165,14.0,26.0,59,0.00,,,0.00,Wunderground v.1.15,2013-05-30 19:15:00,
2013-05-30 14:20:00,82.0,65.8,29.24,South,169,7.0,17.0,58,0.00,,,0.00,Wunderground v.1.15,2013-05-30 19:20:00,
2013-05-30 14:25:00,81.8,66.1,29.25,SSE,156,18.0,24.0,59,0.00,,,0.00,Wunderground v.1.15,2013-05-30 19:25:00,
2013-05-30 14:30:00,81.5,66.3,29.24,SSE,168,12.0,26.0,60,0.00,,,0.00,Wunderground v.1.15,2013-05-30 19:30:00,
2013-05-30 14:35:00,81.5,66.8,29.24,SSE,158,10.0,26.0,61,0.00,,,0.00,Wunderground v.1.15,2013-05-30 19:35:00,
2013-05-30 14:40:00,-999.9,-99.9,29.24,SSE,153,9.0,14.0,62,0.00,,,0.00,Wunderground v.1.15,2013-05-30 19:40:00,
2013-05-30 14:45:00,81.4,67.6,29.25,SSE,167,13.0,19.0,63,0.00,,,0.00,Wunderground v.1.15,2013-05-30 19:45:00,
2013-05-30 14:50:00,81.2,67.4,29.25,South,169,5.0,10.0,63,0.00,,,0.00,Wunderground v.1.15,2013-05-30 19:50:00,
2013-05-30 14:55:00,81.1,67.3,29.25,SSE,148,8.0,22.0,63,0.00,,,0.00,Wunderground v.1.15,2013-05-30 19:55:00,
2013-05-30 15:00:00,-999.9,-99.9,29.25,SE,138,15.0,25.0,62,0.00,,,0.00,Wunderground v.1.15,2013-05-30 20:00:00,
2013-05-30 15:05:00,80.9,66.7,29.24,SSE,157,2.0,25.0,62,0.00,,,0.00,Wunderground v.1.15,2013-05-30 20:05:00,
2013-05-30 15:10:00,80.6,66.4,29.24,ESE,111,14.0,20.0,62,0.00,,,0.00,Wunderground v.1.15,2013-05-30 20:10:00,
2013-05-30 15:15:00,80.4,67.1,29.25,SSE,153,14.0,20.0,64,0.00,,,0.00,Wunderground v.1.15,2013-05-30 20:15:00,
2013-05-30 15:20:00,79.4,67.9,29.24,SSE,151,10.0,18.0,68,0.00,,,0.00,Wunderground v.1.15,2013-05-30 20:20:00,
2013-05-30 15:25:00,78.4,67.8,29.24,SE,144,8.0,18.0,70,0.00,,,0.00,Wunderground v.1.15,2013-05-30 20:25:00,
2013-05-30 15:30:00,79.0,67.5,29.24,SSE,159,12.0,19.0,68,0.00,,,0.00,Wunderground v.1.15,2013-05-30 20:30:00,
2013-05-30 15:35:00,79.8,67.9,29.24,SSE,164,6.0,19.0,67,0.00,,,0.00,Wunderground v.1.15,2013-05-30 20:35:00,
2013-05-30 15:40:00,79.3,68.2,29.23,SSE,148,7.0,13.0,69,0.00,,,0.00,Wunderground v.1.15,2013-05-30 20:40:00,
2013-05-30 15:45:00,78.9,67.9,29.24,SSE,148,5.0,22.0,69,0.00,,,0.00,Wunderground v.1.15,2013-05-30 20:45:00,
2013-05-30 15:50:00,78.2,68.0,29.24,SSE,153,11.0,12.0,71,0.00,,,0.00,Wunderground v.1.15,2013-05-30 20:50:00,
2013-05-30 15:55:00,77.6,67.0,29.28,WSW,239,39.0,39.0,70,0.00,,,0.00,Wunderground v.1.15,2013-05-30 20:55:00,
2013-05-30 16:01:00,73.5,62.3,29.33,WNW,288,26.0,26.0,68,0.00,,,0.00,Wunderground v.1.15,2013-05-30 21:01:00,
2013-05-30 16:06:00,67.2,59.4,29.33,SW,223,8.0,27.0,76,0.00,,,0.00,Wunderground v.1.15,2013-05-30 21:06:00,
2013-05-30 16:11:00,64.9,59.6,29.28,SSW,207,10.0,14.0,83,0.00,,,0.00,Wunderground v.1.15,2013-05-30 21:11:00,
2013-05-30 16:16:00,63.8,59.5,29.29,WSW,242,3.0,14.0,86,0.00,,,0.00,Wunderground v.1.15,2013-05-30 21:16:00,
2013-05-30 16:21:00,63.1,-99.9,29.27,WSW,238,0.0,8.0,255,0.00,,,0.00,Wunderground v.1.15,2013-05-30 21:21:00,
2013-05-30 16:26:00,62.7,59.4,29.27,WNW,286,6.0,14.0,89,0.00,,,0.00,Wunderground v.1.15,2013-05-30 21:26:00,
2013-05-30 16:31:00,62.5,59.5,29.27,SW,218,1.0,4.0,90,0.00,,,0.00,Wunderground v.1.15,2013-05-30 21:31:00,
2013-05-30 16:36:00,62.5,59.8,29.28,SW,219,0.0,12.0,91,0.00,,,0.00,Wunderground v.1.15,2013-05-30 21:36:00,
2013-05-30 16:41:00,62.5,59.8,29.28,SW,230,10.0,10.0,91,0.00,,,0.00,Wunderground v.1.15,2013-05-30 21:41:00,
2013-05-30 16:46:00,62.6,-99.9,29.28,SW,217,4.0,10.0,255,0.00,,,0.00,Wunderground v.1.15,2013-05-30 21:46:00,
2013-05-30 16:51:00,62.4,59.7,29.27,SW,217,0.0,2.0,91,0.00,,,0.00,Wunderground v.1.15,2013-05-30 21:51:00,
2013-05-30 16:56:00,62.4,60.0,29.27,SW,215,0.0,4.0,92,0.00,,,0.00,Wunderground v.1.15,2013-05-30 21:56:00,
2013-05-30 17:01:00,62.5,60.1,29.27,South,178,4.0,6.0,92,0.00,,,0.00,Wunderground v.1.15,2013-05-30 22:01:00,
2013-05-30 17:06:00,62.5,60.1,29.29,SSE,154,8.0,10.0,92,0.00,,,0.00,Wunderground v.1.15,2013-05-30 22:06:00,
2013-05-30 17:11:00,62.7,60.3,29.29,SSE,163,0.0,6.0,92,0.00,,,0.00,Wunderground v.1.15,2013-05-30 22:11:00,
2013-05-30 17:16:00,-999.9,-99.9,29.29,South,170,6.0,9.0,92,0.00,,,0.00,Wunderground v.1.15,2013-05-30 22:16:00,
2013-05-30 17:21:00,62.8,60.4,29.31,South,173,8.0,8.0,92,0.00,,,0.00,Wunderground v.1.15,2013-05-30 22:21:00,
2013-05-30 17:26:00,62.7,60.6,29.30,South,173,6.0,8.0,93,0.00,,,0.00,Wunderground v.1.15,2013-05-30 22:26:00,
2013-05-30 17:31:00,-999.9,-99.9,29.29,SSW,199,2.0,5.0,93,0.00,,,0.00,Wunderground v.1.15,2013-05-30 22:31:00,
2013-05-30 17:36:00,62.7,60.6,29.29,South,179,5.0,13.0,93,0.00,,,0.00,Wunderground v.1.15,2013-05-30 22:36:00,
2013-05-30 17:41:00,62.8,60.7,29.27,SSW,207,2.0,17.0,93,0.00,,,0.00,Wunderground v.1.15,2013-05-30 22:41:00,
2013-05-30 17:46:00,63.0,60.6,29.28,SSW,198,7.0,17.0,92,0.00,,,0.00,Wunderground v.1.15,2013-05-30 22:46:00,
2013-05-30 17:51:00,63.1,61.0,29.29,South,183,0.0,8.0,93,0.00,,,0.00,Wunderground v.1.15,2013-05-30 22:51:00,
2013-05-30 17:56:00,-999.9,-99.9,29.29,South,191,3.0,11.0,255,0.00,,,0.00,Wunderground v.1.15,2013-05-30 22:56:00,
2013-05-30 18:01:00,63.2,61.1,29.29,SSW,199,12.0,12.0,93,0.00,,,0.00,Wunderground v.1.15,2013-05-30 23:01:00,
2013-05-30 18:06:00,63.2,60.8,29.29,SSW,194,6.0,13.0,92,0.00,,,0.00,Wunderground v.1.15,2013-05-30 23:06:00,
2013-05-30 18:11:00,63.2,60.8,29.28,SW,231,0.0,10.0,92,0.00,,,0.00,Wunderground v.1.15,2013-05-30 23:11:00,
2013-05-30 18:16:00,63.2,60.8,29.28,SSW,205,3.0,12.0,92,0.00,,,0.00,Wunderground v.1.15,2013-05-30 23:16:00,
2013-05-30 18:21:00,63.2,60.8,29.28,SSW,209,4.0,6.0,92,0.00,,,0.00,Wunderground v.1.15,2013-05-30 23:21:00,
2013-05-30 18:26:00,63.1,60.7,29.27,SSW,209,4.0,14.0,92,0.00,,,0.00,Wunderground v.1.15,2013-05-30 23:26:00,
2013-05-30 18:31:00,63.1,60.7,29.26,SSW,198,4.0,6.0,92,0.00,,,0.00,Wunderground v.1.15,2013-05-30 23:31:00,
2013-05-30 18:36:00,63.3,60.9,29.27,SSW,192,2.0,7.0,92,0.00,,,0.00,Wunderground v.1.15,2013-05-30 23:36:00,
2013-05-30 18:41:00,63.1,60.7,29.27,South,169,4.0,7.0,92,0.00,,,0.00,Wunderground v.1.15,2013-05-30 23:41:00,
2013-05-30 18:46:00,63.2,60.8,29.28,South,175,5.0,11.0,92,0.00,,,0.00,Wunderground v.1.15,2013-05-30 23:46:00,
2013-05-30 18:51:00,63.2,60.8,29.28,South,175,8.0,10.0,92,0.00,,,0.00,Wunderground v.1.15,2013-05-30 23:51:00,
2013-05-30 18:56:00,63.3,60.6,29.28,SSE,165,7.0,11.0,91,0.00,,,0.00,Wunderground v.1.15,2013-05-30 23:56:00,
2013-05-30 19:01:00,63.4,60.7,29.28,SSE,161,0.0,7.0,91,0.00,,,0.00,Wunderground v.1.15,2013-05-31 00:01:00,
2013-05-30 19:06:00,63.4,60.7,29.29,SSE,150,6.0,11.0,91,0.00,,,0.00,Wunderground v.1.15,2013-05-31 00:06:00,
2013-05-30 19:11:00,63.4,61.0,29.29,SSE,161,9.0,9.0,92,0.00,,,0.00,Wunderground v.1.15,2013-05-31 00:11:00,
2013-05-30 19:16:00,63.4,61.0,29.28,SSE,148,5.0,12.0,92,0.00,,,0.00,Wunderground v.1.15,2013-05-31 00:16:00,
2013-05-30 19:21:00,63.3,60.9,29.27,SSE,149,0.0,5.0,92,0.00,,,0.00,Wunderground v.1.15,2013-05-31 00:21:00,
2013-05-30 19:26:00,-999.9,-99.9,29.27,SSE,152,4.0,10.0,91,0.00,,,0.00,Wunderground v.1.15,2013-05-31 00:26:00,
2013-05-30 19:31:00,63.2,60.8,29.26,SSE,151,0.0,5.0,92,0.00,,,0.00,Wunderground v.1.15,2013-05-31 00:31:00,
2013-05-30 19:36:00,63.2,-99.9,29.26,SSE,148,0.0,13.0,255,0.00,,,0.00,Wunderground v.1.15,2013-05-31 00:36:00,
2013-05-30 19:41:00,-999.9,-99.9,29.26,SSE,155,0.0,11.0,92,0.00,,,0.00,Wunderground v.1.15,2013-05-31 00:41:00,
2013-05-30 19:46:00,63.2,60.8,29.27,SSE,156,9.0,11.0,92,0.00,,,0.00,Wunderground v.1.15,2013-05-31 00:46:00,
2013-05-30 19:51:00,63.3,60.9,29.27,SSE,161,9.0,13.0,92,0.00,,,0.00,Wunderground v.1.15,2013-05-31 00:51:00,
2013-05-30 19:56:00,63.2,60.8,29.26,SE,128,1.0,13.0,92,0.00,,,0.00,Wunderground v.1.15,2013-05-31 00:56:00,
2013-05-30 20:02:00,63.1,60.7,29.25,ESE,122,8.0,15.0,92,0.00,,,0.00,Wunderground v.1.15,2013-05-31 01:02:00,
2013-05-30 20:07:00,63.2,60.8,29.24,ESE,104,0.0,18.0,92,0.00,,,0.00,Wunderground v.1.15,2013-05-31 01:07:00,
2013-05-30 20:12:00,63.1,60.7,29.22,ESE,119,5.0,20.0,92,0.00,,,0.00,Wunderground v.1.15,2013-05-31 01:12:00,
2013-05-30 20:17:00,63.1,60.7,29.25,SE,143,6.0,22.0,92,0.00,,,0.00,Wunderground v.1.15,2013-05-31 01:17:00,
2013-05-30 20:22:00,-999.9,-99.9,29.25,SSE,153,10.0,14.0,255,0.00,,,0.00,Wunderground v.1.15,2013-05-31 01:22:00,
2013-05-30 20:27:00,63.4,60.7,29.24,SSE,161,9.0,14.0,91,0.00,,,0.00,Wunderground v.1.15,2013-05-31 01:27:00,
2013-05-30 20:32:00,63.6,60.9,29.25,SSE,155,9.0,13.0,91,0.00,,,0.00,Wunderground v.1.15,2013-05-31 01:32:00,
2013-05-30 20:37:00,63.8,60.8,29.25,ESE,108,8.0,16.0,90,0.00,,,0.00,Wunderground v.1.15,2013-05-31 01:37:00,
2013-05-30 20:42:00,64.0,61.0,29.23,ESE,113,18.0,18.0,90,0.00,,,0.00,Wunderground v.1.15,2013-05-31 01:42:00,
2013-05-30 20:47:00,64.3,61.0,29.23,SSE,147,9.0,18.0,89,0.00,,,0.00,Wunderground v.1.15,2013-05-31 01:47:00,
2013-05-30 20:52:00,64.8,61.5,29.27,SW,231,3.0,14.0,89,0.00,,,0.00,Wunderground v.1.15,2013-05-31 01:52:00,
2013-05-30 20:57:00,65.0,61.4,29.25,SSE,158,6.0,18.0,88,0.00,,,0.00,Wunderground v.1.15,2013-05-31 01:57:00,
2013-05-30 21:02:00,65.4,61.4,29.25,ESE,122,6.0,19.0,87,0.00,,,0.00,Wunderground v.1.15,2013-05-31 02:02:00,
2013-05-30 21:07:00,65.7,61.4,29.25,South,173,14.0,31.0,86,0.00,,,0.00,Wunderground v.1.15,2013-05-31 02:07:00,
2013-05-30 21:12:00,66.0,61.4,29.25,ESE,121,20.0,28.0,85,0.00,,,0.00,Wunderground v.1.15,2013-05-31 02:12:00,
2013-05-30 21:17:00,-999.9,-99.9,29.25,SSE,165,16.0,30.0,84,0.00,,,0.00,Wunderground v.1.15,2013-05-31 02:17:00,
2013-05-30 21:22:00,65.2,61.2,29.26,South,171,18.0,24.0,87,0.00,,,0.00,Wunderground v.1.15,2013-05-31 02:22:00,
2013-05-30 21:27:00,65.0,61.4,29.27,SSE,164,4.0,26.0,88,0.00,,,0.00,Wunderground v.1.15,2013-05-31 02:27:00,
2013-05-30 21:32:00,64.8,61.5,29.26,SE,126,20.0,24.0,89,0.00,,,0.00,Wunderground v.1.15,2013-05-31 02:32:00,
2013-05-30 21:37:00,64.8,61.5,29.26,SE,130,17.0,24.0,89,0.00,,,0.00,Wunderground v.1.15,2013-05-31 02:37:00,
2013-05-30 21:42:00,64.8,61.5,29.26,SSE,165,12.0,21.0,89,0.00,,,0.00,Wunderground v.1.15,2013-05-31 02:42:00,
2013-05-30 21:47:00,-999.9,-99.9,29.23,SE,135,13.0,22.0,90,0.00,,,0.00,Wunderground v.1.15,2013-05-31 02:47:00,
2013-05-30 21:52:00,64.6,61.6,29.24,SSE,154,10.0,19.0,90,0.00,,,0.00,Wunderground v.1.15,2013-05-31 02:52:00,
2013-05-30 21:57:00,64.6,61.6,29.25,East,94,18.0,19.0,90,0.00,,,0.00,Wunderground v.1.15,2013-05-31 02:57:00,
2013-05-30 22:02:00,64.7,61.7,29.25,SSE,147,9.0,17.0,90,0.00,,,0.00,Wunderground v.1.15,2013-05-31 03:02:00,
2013-05-30 22:07:00,64.6,61.3,29.25,ESE,115,5.0,19.0,89,0.00,,,0.00,Wunderground v.1.15,2013-05-31 03:07:00,
2013-05-30 22:12:00,64.5,61.2,29.25,SSE,162,9.0,15.0,89,0.00,,,0.00,Wunderground v.1.15,2013-05-31 03:12:00,
2013-05-30 22:17:00,-90.0,-91.6,29.25,SSE,157,0.0,16.0,88,0.00,,,0.00,Wunderground v.1.15,2013-05-31 03:17:00,
2013-05-30 22:22:00,64.3,60.7,29.25,SSE,150,9.0,17.0,88,0.00,,,0.00,Wunderground v.1.15,2013-05-31 03:22:00,
2013-05-30 22:27:00,64.3,60.3,29.26,East,95,5.0,17.0,87,0.00,,,0.00,Wunderground v.1.15,2013-05-31 03:27:00,
2013-05-30 22:32:00,64.3,60.3,29.26,SE,146,8.0,17.0,87,0.00,,,0.00,Wunderground v.1.15,2013-05-31 03:32:00,
2013-05-30 22:37:00,64.5,60.2,29.27,SE,145,4.0,17.0,86,0.00,,,0.00,Wunderground v.1.15,2013-05-31 03:37:00,
2013-05-30 22:42:00,64.4,60.1,29.28,SSE,153,9.0,12.0,86,0.00,,,0.00,Wunderground v.1.15,2013-05-31 03:42:00,
2013-05-30 22:47:00,64.3,60.3,29.29,ESE,115,5.0,18.0,87,0.00,,,0.00,Wunderground v.1.15,2013-05-31 03:47:00,
2013-05-30 22:52:00,64.2,60.2,29.29,South,175,2.0,18.0,87,0.00,,,0.00,Wunderground v.1.15,2013-05-31 03:52:00,
2013-05-30 22:57:00,64.1,60.5,29.30,SSE,163,4.0,18.0,88,0.00,,,0.00,Wunderground v.1.15,2013-05-31 03:57:00,
2013-05-30 23:01:00,64.1,60.5,29.30,SE,142,5.0,8.0,88,0.00,,,0.00,Wunderground v.1.15,2013-05-31 04:01:00,
2013-05-30 23:06:00,64.0,60.7,29.30,South,182,4.0,21.0,89,0.00,,,0.00,Wunderground v.1.15,2013-05-31 04:06:00,
2013-05-30 23:11:00,63.9,60.6,29.30,SSE,167,4.0,12.0,89,0.00,,,0.00,Wunderground v.1.15,2013-05-31 04:11:00,
2013-05-30 23:16:00,63.9,60.6,29.30,SSE,165,4.0,12.0,89,0.00,,,0.00,Wunderground v.1.15,2013-05-31 04:16:00,
2013-05-30 23:21:00,-90.0,-91.5,29.30,SSE,161,5.0,9.0,89,0.00,,,0.00,Wunderground v.1.15,2013-05-31 04:21:00,
2013-05-30 23:26:00,-90.0,-91.5,29.30,SSE,161,6.0,11.0,89,0.00,,,0.00,Wunderground v.1.15,2013-05-31 04:26:00,
2013-05-30 23:31:00,64.0,60.7,29.29,SSE,162,9.0,9.0,89,0.00,,,0.00,Wunderground v.1.15,2013-05-31 04:31:00,
2013-05-30 23:36:00,64.3,61.0,29.30,SSE,162,5.0,9.0,89,0.00,,,0.00,Wunderground v.1.15,2013-05-31 04:36:00,
2013-05-30 23:41:00,63.9,60.9,29.29,South,171,6.0,7.0,90,0.00,,,0.00,Wunderground v.1.15,2013-05-31 04:41:00,
2013-05-30 23:46:00,64.1,61.1,29.30,SE,136,5.0,12.0,90,0.00,,,0.00,Wunderground v.1.15,2013-05-31 04:46:00,
2013-05-30 23:51:00,63.9,61.2,29.30,SSE,153,9.0,11.0,91,0.00,,,0.00,Wunderground v.1.15,2013-05-31 04:51:00,
2013-05-30 23:56:00,63.9,61.2,29.30,South,179,0.0,11.0,91,0.00,,,0.00,Wunderground v.1.15,2013-05-31 04:56:00,